Time;durP1;ratioP1;P1;durP2;ratioP2;P2;SDS_P1;SDS_P2;PMS_P1;PMS_P2;Temp;Humidity;BMP_temperature;BMP_pressure;BME280_temperature;BME280_humidity;BME280_pressure;Samples;Min_cycle;Max_cycle;Signal;HPM_P1;HPM_P2
2023/08/11 00:01:51;;;;;;;4.75;3.28;;;;;;;-145.00;57.37;73815.41;5048325;28;20501;-77
2023/08/11 00:04:18;;;;;;;4.32;3.10;;;;;;;-145.00;57.46;73817.50;5052317;28;20051;-76
2023/08/11 00:06:44;;;;;;;5.00;3.35;;;;;;;-145.00;57.31;73817.50;5053176;28;20041;-77
2023/08/11 00:09:11;;;;;;;4.25;3.13;;;;;;;-145.00;57.51;73832.06;5052711;28;20131;-77
2023/08/11 00:11:38;;;;;;;4.28;3.08;;;;;;;-145.00;57.54;73832.06;5052247;28;20128;-77
2023/08/11 00:14:05;;;;;;;4.95;2.92;;;;;;;-145.00;57.63;73832.06;5052455;28;20128;-76
2023/08/11 00:16:33;;;;;;;4.63;2.97;;;;;;;-145.00;57.27;73829.97;5053273;28;20045;-76
2023/08/11 00:19:00;;;;;;;3.65;2.80;;;;;;;-145.00;57.57;73834.16;5053142;28;20390;-78
2023/08/11 00:21:26;;;;;;;4.03;2.88;;;;;;;-145.00;57.91;73838.31;5053134;28;20040;-79
2023/08/11 00:23:53;;;;;;;4.88;2.83;;;;;;;-145.00;57.89;73846.63;5060222;28;20546;-77
2023/08/11 00:26:20;;;;;;;4.50;2.88;;;;;;;-145.00;58.22;73844.56;5058938;28;20049;-78
2023/08/11 00:28:46;;;;;;;6.10;3.10;;;;;;;-145.00;58.09;73850.81;5058324;28;20407;-77
2023/08/11 00:31:13;;;;;;;4.03;2.97;;;;;;;-145.00;58.25;73859.13;5058359;28;20039;-76
2023/08/11 00:33:46;;;;;;;4.72;3.00;;;;;;;-145.00;58.24;73854.97;5058701;28;20041;-76
2023/08/11 00:36:13;;;;;;;4.20;2.78;;;;;;;-145.00;58.33;73857.06;5056140;28;20114;-78
2023/08/11 00:38:40;;;;;;;3.53;2.63;;;;;;;-145.00;58.58;73863.28;5056632;28;20052;-76
2023/08/11 00:41:07;;;;;;;4.57;2.92;;;;;;;-145.00;58.67;73865.38;5054458;28;20052;-78
2023/08/11 00:43:33;;;;;;;4.30;2.65;;;;;;;-145.00;59.17;73871.63;5054520;28;20037;-78
2023/08/11 00:46:08;;;;;;;4.13;2.85;;;;;;;-145.00;59.30;73867.47;5054800;28;20053;-78
2023/08/11 00:48:35;;;;;;;4.03;2.90;;;;;;;-145.00;58.96;73871.63;5056619;28;20045;-78
2023/08/11 00:51:05;;;;;;;3.67;2.47;;;;;;;-145.00;59.06;73875.78;5055463;28;20060;-75
2023/08/11 00:53:32;;;;;;;3.60;2.90;;;;;;;-145.00;58.45;73879.97;5056108;28;20045;-78
2023/08/11 00:55:58;;;;;;;5.85;2.78;;;;;;;-145.00;58.72;73886.19;5056693;28;20141;-79
2023/08/11 00:58:25;;;;;;;3.85;2.80;;;;;;;-145.00;58.72;73892.44;5054972;28;20041;-78
2023/08/11 01:00:53;;;;;;;3.90;3.00;;;;;;;-145.00;59.29;73896.63;5055044;28;20538;-77
2023/08/11 01:03:19;;;;;;;4.95;2.97;;;;;;;-145.00;59.49;73894.53;5054019;28;20049;-77
2023/08/11 01:05:57;;;;;;;7.30;3.00;;;;;;;-145.00;59.08;73898.69;5055395;28;20043;-78
2023/08/11 01:08:33;;;;;;;3.90;2.90;;;;;;;-145.00;59.43;73900.78;5053521;28;20048;-78
2023/08/11 01:11:08;;;;;;;5.20;3.13;;;;;;;-145.00;60.12;73911.19;5053722;28;20041;-78
2023/08/11 01:13:41;;;;;;;4.88;3.22;;;;;;;-145.00;59.70;73915.34;5051700;28;20037;-78
2023/08/11 01:16:09;;;;;;;4.65;3.10;;;;;;;-145.00;60.00;73925.75;5053018;28;20080;-78
2023/08/11 01:18:36;;;;;;;5.63;3.40;;;;;;;-145.00;59.77;73921.59;5054704;28;20056;-78
2023/08/11 01:21:07;;;;;;;3.63;2.83;;;;;;;-145.00;59.68;73925.75;5054589;28;20496;-77
2023/08/11 01:23:35;;;;;;;6.25;3.25;;;;;;;-145.00;59.95;73934.09;5054271;28;20416;-79
2023/08/11 01:26:02;;;;;;;4.40;3.05;;;;;;;-145.00;60.22;73946.59;5053941;28;20404;-75
2023/08/11 01:28:28;;;;;;;3.90;3.15;;;;;;;-145.00;59.95;73952.84;5053152;28;20041;-77
2023/08/11 01:30:55;;;;;;;4.25;3.42;;;;;;;-145.00;60.06;73950.75;5054158;28;20044;-77
2023/08/11 01:33:21;;;;;;;5.15;3.58;;;;;;;-145.00;60.65;73942.44;5053065;28;20535;-78
2023/08/11 01:35:47;;;;;;;6.55;3.33;;;;;;;-145.00;60.87;73950.75;5053298;28;20041;-78
2023/08/11 01:38:13;;;;;;;4.35;3.08;;;;;;;-145.00;60.84;73954.91;5053954;28;20041;-78
2023/08/11 01:40:41;;;;;;;4.70;3.47;;;;;;;-145.00;60.85;73957.00;5053732;28;20041;-78
2023/08/11 01:43:11;;;;;;;4.18;3.17;;;;;;;-145.00;60.93;73963.25;5052053;28;20436;-77
2023/08/11 01:45:38;;;;;;;4.03;2.88;;;;;;;-145.00;60.67;73959.09;5052977;28;20041;-77
2023/08/11 01:48:06;;;;;;;3.97;3.05;;;;;;;-145.00;60.53;73961.16;5052072;28;20048;-77
2023/08/11 01:50:34;;;;;;;4.07;3.00;;;;;;;-145.00;60.32;73959.09;5051766;28;20041;-77
2023/08/11 01:53:00;;;;;;;4.28;3.35;;;;;;;-145.00;60.95;73954.91;5052244;28;20055;-77
2023/08/11 01:55:28;;;;;;;4.70;3.35;;;;;;;-145.00;60.84;73959.09;5048842;28;20097;-77
2023/08/11 01:57:56;;;;;;;6.57;3.30;;;;;;;-145.00;60.69;73967.41;5046960;28;20041;-77
2023/08/11 02:00:23;;;;;;;4.53;3.30;;;;;;;-145.00;60.66;73969.50;5051039;28;20133;-76
2023/08/11 02:02:50;;;;;;;5.63;3.28;;;;;;;-145.00;61.09;73979.91;5052082;28;20072;-77
2023/08/11 02:05:16;;;;;;;4.55;3.35;;;;;;;-145.00;60.99;73975.75;5051115;28;20053;-77
2023/08/11 02:07:44;;;;;;;4.60;3.05;;;;;;;-145.00;61.43;73973.66;5051924;28;20044;-77
2023/08/11 02:10:11;;;;;;;5.90;3.50;;;;;;;-145.00;61.45;73975.75;5052192;28;20416;-77
2023/08/11 02:12:39;;;;;;;3.50;3.03;;;;;;;-145.00;61.19;73975.75;5052817;28;20045;-78
2023/08/11 02:15:08;;;;;;;4.72;3.30;;;;;;;-145.00;61.38;73967.41;5052056;28;20048;-77
2023/08/11 02:17:35;;;;;;;5.70;3.45;;;;;;;-145.00;61.45;73975.75;5045140;28;20041;-77
2023/08/11 02:20:12;;;;;;;4.97;3.53;;;;;;;-145.00;61.51;73975.75;5052463;28;20635;-75
2023/08/11 02:22:41;;;;;;;4.63;3.35;;;;;;;-145.00;61.98;73984.06;5054055;28;20048;-77
2023/08/11 02:25:08;;;;;;;4.50;3.60;;;;;;;-145.00;61.63;73977.81;5053443;28;20684;-77
2023/08/11 02:27:34;;;;;;;4.35;3.63;;;;;;;-145.00;61.68;73986.16;5053785;28;20511;-78
2023/08/11 02:30:02;;;;;;;5.80;3.92;;;;;;;-145.00;62.13;73996.56;5053317;28;20045;-77
2023/08/11 02:32:30;;;;;;;5.80;3.60;;;;;;;-145.00;62.04;73992.41;5053128;28;20041;-78
2023/08/11 02:34:57;;;;;;;6.53;3.40;;;;;;;-145.00;62.28;73988.25;5053677;28;20380;-77
2023/08/11 02:37:23;;;;;;;5.03;3.65;;;;;;;-145.00;62.00;73990.31;5055575;28;20095;-78
2023/08/11 02:39:50;;;;;;;4.53;3.53;;;;;;;-145.00;61.87;73992.41;5056506;28;20488;-78
2023/08/11 02:42:16;;;;;;;5.35;3.92;;;;;;;-145.00;62.23;73988.25;5052945;28;20045;-77
2023/08/11 02:44:43;;;;;;;5.38;3.80;;;;;;;-145.00;62.02;73996.56;5057655;28;20501;-78
2023/08/11 02:47:10;;;;;;;5.38;3.33;;;;;;;-145.00;62.18;74002.81;5058352;28;20082;-77
2023/08/11 02:49:38;;;;;;;5.10;3.42;;;;;;;-145.00;62.25;74011.16;5051263;28;20044;-77
2023/08/11 02:52:05;;;;;;;5.43;3.72;;;;;;;-145.00;62.43;74021.56;5058637;28;20049;-78
2023/08/11 02:54:32;;;;;;;4.88;3.35;;;;;;;-145.00;62.73;74025.72;5059664;28;20083;-77
2023/08/11 02:56:58;;;;;;;5.45;3.67;;;;;;;-145.00;62.34;74025.72;5060161;28;20044;-77
2023/08/11 02:59:25;;;;;;;4.47;3.50;;;;;;;-145.00;62.88;74048.63;5058591;28;20041;-78
2023/08/11 03:01:51;;;;;;;6.72;4.13;;;;;;;-145.00;63.50;74073.63;5059936;28;20049;-77
2023/08/11 03:04:17;;;;;;;5.93;3.72;;;;;;;-145.00;63.13;74054.88;5059670;28;20064;-76
2023/08/11 03:06:47;;;;;;;5.85;4.18;;;;;;;-145.00;63.05;74046.53;5054380;28;20045;-77
2023/08/11 03:09:14;;;;;;;5.00;3.55;;;;;;;-145.00;63.15;74036.13;5052131;28;20060;-76
2023/08/11 03:11:40;;;;;;;5.13;3.70;;;;;;;-145.00;63.50;74036.13;5052485;28;20049;-76
2023/08/11 03:14:07;;;;;;;6.95;4.40;;;;;;;-145.00;63.62;74034.06;5052330;28;20099;-76
2023/08/11 03:16:33;;;;;;;6.22;3.67;;;;;;;-145.00;63.29;74040.28;5052983;28;20041;-76
2023/08/11 03:19:00;;;;;;;4.70;3.60;;;;;;;-145.00;63.26;74050.72;5051661;28;20645;-77
2023/08/11 03:21:26;;;;;;;5.88;3.90;;;;;;;-145.00;63.30;74052.78;5051915;28;20492;-76
2023/08/11 03:23:55;;;;;;;4.88;3.67;;;;;;;-145.00;63.81;74056.97;5052449;28;20059;-77
2023/08/11 03:26:21;;;;;;;5.68;3.83;;;;;;;-145.00;63.70;74050.72;5043434;28;22344;-76
2023/08/11 03:28:48;;;;;;;5.43;3.67;;;;;;;-145.00;63.90;74056.97;5055391;28;20408;-76
2023/08/11 03:31:14;;;;;;;8.38;3.40;;;;;;;-145.00;63.53;74052.78;5055272;28;20045;-77
2023/08/11 03:33:41;;;;;;;5.82;3.63;;;;;;;-145.00;63.74;74059.03;5054501;28;20041;-76
2023/08/11 03:36:07;;;;;;;5.70;3.80;;;;;;;-145.00;63.99;74063.19;5054428;28;20053;-77
2023/08/11 03:38:34;;;;;;;4.65;3.80;;;;;;;-145.00;64.08;74073.63;5055990;28;20067;-76
2023/08/11 03:41:01;;;;;;;5.82;3.60;;;;;;;-145.00;64.23;74065.28;5056117;28;20049;-76
2023/08/11 03:43:28;;;;;;;5.15;3.80;;;;;;;-145.00;64.22;74065.28;5054329;28;20040;-76
2023/08/11 03:45:55;;;;;;;7.28;3.78;;;;;;;-145.00;64.13;74059.03;5055527;28;20040;-76
2023/08/11 03:48:21;;;;;;;5.45;3.83;;;;;;;-145.00;63.84;74054.88;5053701;28;20234;-76
2023/08/11 03:50:48;;;;;;;5.88;3.58;;;;;;;-145.00;63.59;74054.88;5056046;28;20044;-75
2023/08/11 03:53:14;;;;;;;5.50;3.50;;;;;;;-145.00;63.45;74054.88;5055112;28;20055;-75
2023/08/11 03:55:43;;;;;;;5.53;3.58;;;;;;;-145.00;63.42;74067.38;5055332;28;20048;-75
2023/08/11 03:58:14;;;;;;;6.18;3.70;;;;;;;-145.00;63.77;74075.69;5055166;28;20045;-78
2023/08/11 04:00:41;;;;;;;5.18;3.83;;;;;;;-145.00;64.20;74092.34;5055635;28;20047;-78
2023/08/11 04:03:09;;;;;;;3.67;3.08;;;;;;;-145.00;63.97;74086.09;5054987;28;20045;-76
2023/08/11 04:05:36;;;;;;;5.35;3.70;;;;;;;-145.00;63.99;74075.69;5054497;28;20429;-78
2023/08/11 04:08:04;;;;;;;5.53;3.60;;;;;;;-145.00;64.17;74084.03;5054556;28;20508;-78
2023/08/11 04:10:30;;;;;;;5.20;4.00;;;;;;;-145.00;64.13;74075.69;5055055;28;20048;-76
2023/08/11 04:12:57;;;;;;;6.60;4.00;;;;;;;-145.00;63.82;74075.69;5054168;28;20132;-77
2023/08/11 04:15:25;;;;;;;5.55;4.10;;;;;;;-145.00;63.94;74081.94;5053821;28;20041;-77
2023/08/11 04:17:52;;;;;;;5.57;3.80;;;;;;;-145.00;63.81;74075.69;5054338;28;20049;-77
2023/08/11 04:20:18;;;;;;;5.90;3.88;;;;;;;-145.00;64.10;74071.53;5054397;28;20470;-76
2023/08/11 04:22:45;;;;;;;7.47;4.25;;;;;;;-145.00;64.30;74079.88;5046725;28;20048;-76
2023/08/11 04:25:13;;;;;;;5.65;3.85;;;;;;;-145.00;64.12;74079.88;5053097;28;20044;-74
2023/08/11 04:27:40;;;;;;;5.75;4.38;;;;;;;-145.00;64.06;74081.94;5054415;28;20041;-75
2023/08/11 04:30:08;;;;;;;5.20;3.80;;;;;;;-145.00;64.22;74090.28;5054570;28;20075;-78
2023/08/11 04:32:35;;;;;;;6.07;3.88;;;;;;;-145.00;64.70;74098.59;5053146;28;20049;-75
2023/08/11 04:35:04;;;;;;;5.97;3.75;;;;;;;-145.00;64.60;74088.19;5034533;28;20046;-76
2023/08/11 04:37:30;;;;;;;6.85;4.03;;;;;;;-145.00;65.23;74104.84;5049860;28;20047;-76
2023/08/11 04:39:56;;;;;;;6.35;4.35;;;;;;;-145.00;65.36;74113.19;5052452;28;20045;-78
2023/08/11 04:42:23;;;;;;;6.22;4.50;;;;;;;-145.00;64.76;74104.84;5051613;28;20041;-77
2023/08/11 04:44:49;;;;;;;5.53;4.22;;;;;;;-145.00;64.93;74084.03;5052779;28;20132;-77
2023/08/11 04:47:16;;;;;;;5.93;4.35;;;;;;;-145.00;64.91;74086.09;5053145;28;20045;-78
2023/08/11 04:49:44;;;;;;;6.47;4.50;;;;;;;-145.00;64.85;74079.88;5051614;28;20067;-77
2023/08/11 04:52:11;;;;;;;6.78;4.68;;;;;;;-145.00;64.42;74071.53;5051938;28;20056;-77
2023/08/11 04:54:37;;;;;;;6.00;4.45;;;;;;;-145.00;64.12;74065.28;5051235;28;20071;-78
2023/08/11 04:57:04;;;;;;;7.47;4.63;;;;;;;-145.00;64.17;74063.19;5051596;28;20413;-76
2023/08/11 04:59:31;;;;;;;6.10;4.78;;;;;;;-145.00;63.90;74059.03;5050800;28;20048;-78
2023/08/11 05:01:58;;;;;;;7.07;5.18;;;;;;;-145.00;64.08;74059.03;5051937;28;20115;-78
2023/08/11 05:04:25;;;;;;;7.35;4.10;;;;;;;-145.00;63.85;74054.88;5051228;28;20048;-78
2023/08/11 05:06:52;;;;;;;5.40;4.20;;;;;;;-145.00;64.12;74046.53;5050461;28;20056;-74
2023/08/11 05:09:19;;;;;;;6.57;4.22;;;;;;;-145.00;64.16;74038.22;5049012;28;20064;-74
2023/08/11 05:11:45;;;;;;;4.97;3.72;;;;;;;-145.00;64.27;74029.88;5048807;28;20050;-75
2023/08/11 05:14:14;;;;;;;5.38;3.63;;;;;;;-145.00;64.07;74025.72;5048254;28;20693;-75
2023/08/11 05:16:41;;;;;;;7.85;4.97;;;;;;;-145.00;64.14;74015.31;5049900;28;20040;-74
2023/08/11 05:19:07;;;;;;;8.07;4.53;;;;;;;-145.00;64.10;74004.91;5052018;28;20049;-74
2023/08/11 05:21:34;;;;;;;7.20;4.25;;;;;;;-145.00;63.89;73994.50;5052322;28;20049;-74
2023/08/11 05:24:02;;;;;;;5.93;4.13;;;;;;;-145.00;64.38;73992.41;5052368;28;20123;-74
2023/08/11 05:26:28;;;;;;;5.68;4.60;;;;;;;-145.00;64.31;73977.81;5051144;28;20496;-74
2023/08/11 05:28:55;;;;;;;5.43;4.35;;;;;;;-145.00;64.37;73967.41;5051601;28;20033;-75
2023/08/11 05:31:21;;;;;;;5.90;4.07;;;;;;;-145.00;64.67;73957.00;5050100;28;20048;-74
2023/08/11 05:33:48;;;;;;;5.57;4.07;;;;;;;-145.00;64.79;73950.75;5051567;28;20070;-74
2023/08/11 05:36:15;;;;;;;8.85;4.75;;;;;;;-145.00;64.16;73942.44;5051333;28;20045;-73
2023/08/11 05:38:41;;;;;;;6.85;4.88;;;;;;;-145.00;64.18;73934.09;5051598;28;20045;-74
2023/08/11 05:41:09;;;;;;;5.88;4.13;;;;;;;-145.00;64.22;73921.59;5051019;28;20041;-74
2023/08/11 05:43:37;;;;;;;5.57;3.92;;;;;;;-145.00;64.00;73913.28;5051426;28;20102;-75
2023/08/11 05:46:06;;;;;;;7.25;4.22;;;;;;;-145.00;63.93;73898.69;5050897;28;20045;-75
2023/08/11 05:48:33;;;;;;;5.93;4.28;;;;;;;-145.00;63.83;73886.19;5051320;28;20492;-74
2023/08/11 05:50:59;;;;;;;7.65;4.22;;;;;;;-145.00;63.82;73875.78;5050518;28;20052;-75
2023/08/11 05:53:26;;;;;;;6.13;4.47;;;;;;;-145.00;64.38;73882.03;5050538;28;20045;-74
2023/08/11 05:55:52;;;;;;;6.78;4.35;;;;;;;-145.00;64.78;73884.13;5051000;28;20041;-74
2023/08/11 05:58:20;;;;;;;6.55;4.30;;;;;;;-145.00;65.00;73884.13;5050543;28;20052;-75
2023/08/11 06:00:48;;;;;;;5.78;3.97;;;;;;;-145.00;64.13;73846.63;5051153;28;20127;-74
2023/08/11 06:03:14;;;;;;;5.95;4.32;;;;;;;-145.00;63.60;73832.06;5050386;28;20072;-74
2023/08/11 06:05:41;;;;;;;8.52;4.40;;;;;;;-145.00;63.05;73809.16;5050773;28;20048;-75
2023/08/11 06:08:08;;;;;;;5.43;3.80;;;;;;;-145.00;62.66;73796.66;5050344;28;20045;-76
2023/08/11 06:10:35;;;;;;;8.52;5.00;;;;;;;-145.00;62.29;73788.34;5050594;28;20047;-74
2023/08/11 06:13:01;;;;;;;6.43;3.80;;;;;;;-145.00;62.11;73769.59;5050629;28;20055;-75
2023/08/11 06:15:30;;;;;;;5.90;4.35;;;;;;;-145.00;62.59;73782.09;5051389;28;20048;-76
2023/08/11 06:17:56;;;;;;;6.63;4.30;;;;;;;-145.00;62.87;73780.00;5043257;28;20076;-75
2023/08/11 06:20:23;;;;;;;6.75;4.00;;;;;;;-145.00;62.78;73759.19;5050640;28;20037;-76
2023/08/11 06:22:49;;;;;;;5.35;4.25;;;;;;;-145.00;61.92;73725.88;5050703;28;20064;-74
2023/08/11 06:25:16;;;;;;;5.32;3.75;;;;;;;-145.00;61.99;73717.53;5050134;28;20051;-74
2023/08/11 06:27:43;;;;;;;5.45;3.80;;;;;;;-145.00;61.76;73698.81;5051091;28;20049;-74
2023/08/11 06:30:10;;;;;;;5.88;3.80;;;;;;;-145.00;62.08;73696.72;5050478;28;20041;-74
2023/08/11 06:32:38;;;;;;;5.97;3.42;;;;;;;-145.00;61.30;73671.72;5051073;28;20099;-75
2023/08/11 06:35:07;;;;;;;5.60;3.80;;;;;;;-145.00;62.04;73705.03;5052807;28;20036;-74
2023/08/11 06:37:33;;;;;;;6.13;3.70;;;;;;;-145.00;61.38;73665.47;5053170;28;20060;-74
2023/08/11 06:40:00;;;;;;;5.55;4.00;;;;;;;-145.00;59.96;73621.75;5053174;28;20055;-75
2023/08/11 06:42:26;;;;;;;6.38;4.00;;;;;;;-145.00;59.86;73617.59;5055049;28;20109;-75
2023/08/11 06:44:53;;;;;;;4.25;3.47;;;;;;;-145.00;60.41;73642.56;5055878;28;20059;-75
2023/08/11 06:47:19;;;;;;;4.32;3.45;;;;;;;-145.00;60.61;73619.69;5055506;28;20409;-75
2023/08/11 06:49:47;;;;;;;5.00;3.85;;;;;;;-145.00;59.92;73586.38;5055723;28;20049;-74
2023/08/11 06:52:13;;;;;;;5.93;3.80;;;;;;;-145.00;59.19;73557.22;5054861;28;20496;-74
2023/08/11 06:54:40;;;;;;;5.50;3.75;;;;;;;-145.00;58.35;73538.47;5055237;28;20055;-75
2023/08/11 06:57:07;;;;;;;5.75;3.75;;;;;;;-145.00;59.88;73582.19;5055959;28;20481;-74
2023/08/11 06:59:33;;;;;;;5.10;3.70;;;;;;;-145.00;60.23;73575.94;5055607;28;20048;-74
2023/08/11 07:02:00;;;;;;;5.43;3.55;;;;;;;-145.00;58.50;73511.41;5054951;28;20049;-76
2023/08/11 07:04:26;;;;;;;5.25;4.18;;;;;;;-145.00;58.83;73555.13;5052121;28;20061;-76
2023/08/11 07:06:55;;;;;;;5.93;3.85;;;;;;;-145.00;58.24;73546.81;5050251;28;20045;-76
2023/08/11 07:09:21;;;;;;;6.32;4.10;;;;;;;-145.00;58.53;73550.97;5049724;28;20053;-76
2023/08/11 07:11:48;;;;;;;5.93;3.60;;;;;;;-145.00;58.18;73501.00;5049871;28;20052;-76
2023/08/11 07:14:14;;;;;;;4.63;3.60;;;;;;;-145.00;56.58;73446.84;5049327;28;20592;-76
2023/08/11 07:16:41;;;;;;;4.28;3.40;;;;;;;-145.00;56.61;73442.69;5050049;28;20045;-76
2023/08/11 07:19:08;;;;;;;5.00;3.38;;;;;;;-145.00;56.14;73428.13;5049310;28;20411;-76
2023/08/11 07:21:34;;;;;;;5.03;3.40;;;;;;;-145.00;56.23;73403.13;5049807;28;20051;-76
2023/08/11 07:24:02;;;;;;;4.55;3.20;;;;;;;-145.00;55.75;73426.03;5049623;28;20412;-76
2023/08/11 07:26:28;;;;;;;5.32;4.18;;;;;;;-145.00;55.53;73398.97;5045249;28;20045;-76
2023/08/11 07:28:55;;;;;;;7.30;3.72;;;;;;;-145.00;54.11;73369.81;5048418;28;20041;-76
2023/08/11 07:31:21;;;;;;;5.50;3.53;;;;;;;-145.00;54.03;73353.16;5049214;28;20056;-76
2023/08/11 07:33:48;;;;;;;4.95;3.90;;;;;;;-145.00;54.25;73357.34;5049668;28;20043;-74
2023/08/11 07:36:14;;;;;;;8.07;3.75;;;;;;;-145.00;54.44;73351.09;5049254;28;20048;-74
2023/08/11 07:38:41;;;;;;;5.75;3.47;;;;;;;-145.00;53.92;73326.09;5049603;28;20053;-74
2023/08/11 07:41:09;;;;;;;5.47;3.67;;;;;;;-145.00;53.14;73259.47;5049169;28;20037;-74
2023/08/11 07:43:35;;;;;;;5.35;3.58;;;;;;;-145.00;51.66;73217.84;5049443;28;20051;-74
2023/08/11 07:46:02;;;;;;;6.13;3.50;;;;;;;-145.00;50.51;73138.72;5049465;28;20051;-74
2023/08/11 07:48:28;;;;;;;5.15;3.28;;;;;;;-145.00;49.60;73169.94;5050113;28;20045;-74
2023/08/11 07:50:55;;;;;;;5.15;3.20;;;;;;;-145.00;48.10;73072.09;5049807;28;20404;-76
2023/08/11 07:53:21;;;;;;;4.20;2.55;;;;;;;-145.00;47.03;73005.47;5049358;28;20045;-74
2023/08/11 07:55:48;;;;;;;5.35;3.03;;;;;;;-145.00;45.89;72978.41;5049900;28;20037;-75
2023/08/11 07:58:16;;;;;;;5.25;3.00;;;;;;;-145.00;45.78;72959.69;5048158;28;20072;-74
2023/08/11 08:00:42;;;;;;;3.53;2.90;;;;;;;-145.00;46.75;72959.69;5050342;28;20045;-74
2023/08/11 08:03:09;;;;;;;4.28;2.90;;;;;;;-145.00;44.97;72893.06;5049819;28;20036;-74
2023/08/11 08:05:35;;;;;;;4.03;3.13;;;;;;;-145.00;43.92;72861.84;5050529;28;20049;-75
2023/08/11 08:08:01;;;;;;;5.18;3.03;;;;;;;-145.00;42.44;72813.94;5050117;28;20037;-76
2023/08/11 08:10:28;;;;;;;3.35;2.50;;;;;;;-145.00;42.20;72857.66;5050028;28;20060;-76
2023/08/11 08:12:54;;;;;;;3.38;2.83;;;;;;;-145.00;41.76;72772.31;5050328;28;20044;-75
2023/08/11 08:15:24;;;;;;;6.28;3.05;;;;;;;-145.00;41.61;72768.16;5052309;28;20047;-74
2023/08/11 08:17:51;;;;;;;4.72;2.92;;;;;;;-145.00;41.37;72745.25;5052991;28;20055;-74
2023/08/11 08:20:17;;;;;;;4.28;2.83;;;;;;;-145.00;42.29;72784.81;5053346;28;20036;-76
2023/08/11 08:22:44;;;;;;;4.47;2.65;;;;;;;-145.00;41.89;72780.66;5052946;28;20068;-75
2023/08/11 08:25:10;;;;;;;2.97;2.60;;;;;;;-145.00;41.32;72701.53;5052502;28;20404;-74
2023/08/11 08:27:38;;;;;;;4.93;2.80;;;;;;;-145.00;40.22;72637.00;5053139;28;20047;-75
2023/08/11 08:30:07;;;;;;;3.90;2.38;;;;;;;-145.00;39.03;72616.19;5052937;28;20041;-76
2023/08/11 08:32:35;;;;;;;7.07;2.58;;;;;;;-145.00;40.11;72709.88;5053534;28;20095;-77
2023/08/11 08:35:03;;;;;;;4.40;2.90;;;;;;;-145.00;41.28;72843.09;5052948;28;20045;-77
2023/08/11 08:37:31;;;;;;;3.75;2.80;;;;;;;-145.00;41.46;72718.19;5053514;28;20053;-77
2023/08/11 08:39:58;;;;;;;3.70;2.72;;;;;;;-145.00;40.94;72634.94;5053153;28;20045;-75
2023/08/11 08:42:26;;;;;;;6.10;3.03;;;;;;;-145.00;38.31;72641.16;5052290;28;20598;-76
2023/08/11 08:44:54;;;;;;;4.10;2.80;;;;;;;-145.00;40.57;72605.78;5053711;28;20045;-74
2023/08/11 08:47:21;;;;;;;4.60;3.10;;;;;;;-145.00;39.93;72630.75;5053269;28;20063;-76
2023/08/11 08:49:52;;;;;;;3.55;2.50;;;;;;;-145.00;38.33;72643.25;5053777;28;20512;-76
2023/08/11 08:52:20;;;;;;;4.65;2.53;;;;;;;-145.00;39.26;72609.94;5053724;28;20041;-76
2023/08/11 08:54:47;;;;;;;3.35;2.58;;;;;;;-145.00;39.25;72691.13;5054115;28;20695;-75
2023/08/11 08:57:15;;;;;;;4.32;3.00;;;;;;;-145.00;40.61;72720.28;5049984;28;20049;-76
2023/08/11 08:59:41;;;;;;;5.28;3.00;;;;;;;-145.00;40.60;72722.34;5049355;28;20419;-75
2023/08/11 09:02:09;;;;;;;4.25;3.03;;;;;;;-145.00;41.79;72728.59;5053185;28;20055;-74
2023/08/11 09:04:35;;;;;;;5.38;2.90;;;;;;;-145.00;40.37;72634.94;5052833;28;20049;-77
2023/08/11 09:07:03;;;;;;;3.33;2.60;;;;;;;-145.00;38.62;72574.56;5052747;28;20052;-75
2023/08/11 09:09:30;;;;;;;4.75;2.53;;;;;;;-145.00;39.75;72543.34;5053960;28;20056;-77
2023/08/11 09:11:57;;;;;;;3.80;2.65;;;;;;;-145.00;38.72;72497.53;5053302;28;20041;-75
2023/08/11 09:14:24;;;;;;;4.00;2.65;;;;;;;-145.00;38.02;72497.53;5053220;28;20063;-74
2023/08/11 09:16:52;;;;;;;2.63;2.15;;;;;;;-145.00;37.25;72455.91;5054088;28;20040;-75
2023/08/11 09:19:19;;;;;;;3.22;2.50;;;;;;;-145.00;37.39;72389.28;5053400;28;20044;-75
2023/08/11 09:21:47;;;;;;;3.88;2.80;;;;;;;-145.00;36.59;72356.00;5054604;28;20048;-76
2023/08/11 09:24:15;;;;;;;2.92;2.20;;;;;;;-145.00;35.62;72368.47;5046876;28;20041;-76
2023/08/11 09:26:44;;;;;;;3.03;2.40;;;;;;;-145.00;35.77;72485.06;5048436;28;20049;-76
2023/08/11 09:29:11;;;;;;;5.10;2.60;;;;;;;-145.00;35.39;72401.78;5055255;28;20102;-74
2023/08/11 09:31:39;;;;;;;5.78;2.67;;;;;;;-145.00;35.14;72343.50;5056586;28;20496;-75
2023/08/11 09:34:13;;;;;;;3.42;2.33;;;;;;;-145.00;35.25;72310.19;5055421;28;20723;-75
2023/08/11 09:36:41;;;;;;;3.55;2.53;;;;;;;-145.00;35.11;72264.41;5055706;28;20095;-76
2023/08/11 09:39:08;;;;;;;3.03;2.10;;;;;;;-145.00;33.80;72233.19;5055922;28;20463;-76
2023/08/11 09:41:40;;;;;;;3.15;2.17;;;;;;;-145.00;33.79;72262.31;5055806;28;20083;-76
2023/08/11 09:44:07;;;;;;;4.03;2.10;;;;;;;-145.00;35.95;72501.69;5054038;28;20041;-77
2023/08/11 09:46:37;;;;;;;5.28;2.33;;;;;;;-145.00;35.53;72564.16;5055092;28;20060;-77
2023/08/11 09:49:05;;;;;;;2.70;2.00;;;;;;;-145.00;36.78;72501.69;5052995;28;20443;-76
2023/08/11 09:51:34;;;;;;;4.18;2.35;;;;;;;-145.00;37.00;72383.06;5053564;28;20040;-74
2023/08/11 09:54:04;;;;;;;3.95;2.65;;;;;;;-145.00;34.30;72356.00;5053343;28;20049;-76
2023/08/11 09:56:34;;;;;;;3.40;2.30;;;;;;;-145.00;33.59;72331.00;5047459;28;20053;-75
2023/08/11 09:59:03;;;;;;;2.78;1.98;;;;;;;-145.00;34.13;72318.53;5053447;28;20075;-76
2023/08/11 10:01:34;;;;;;;3.40;2.28;;;;;;;-145.00;33.70;72380.97;5053639;28;20452;-77
2023/08/11 10:04:03;;;;;;;2.95;1.83;;;;;;;-145.00;33.82;72312.28;5053013;28;20052;-74
2023/08/11 10:06:32;;;;;;;2.72;1.90;;;;;;;-145.00;35.26;72283.13;5053179;28;20048;-77
2023/08/11 10:09:02;;;;;;;3.72;2.45;;;;;;;-145.00;34.18;72287.31;5053423;28;20059;-74
2023/08/11 10:11:32;;;;;;;3.50;2.10;;;;;;;-145.00;33.48;72233.19;5053140;28;20039;-77
2023/08/11 10:14:01;;;;;;;3.85;2.17;;;;;;;-145.00;32.73;72272.72;5053216;28;20045;-74
2023/08/11 10:16:30;;;;;;;2.60;2.05;;;;;;;-145.00;33.48;72356.00;5053233;28;20041;-74
2023/08/11 10:19:00;;;;;;;2.72;1.92;;;;;;;-145.00;33.65;72347.66;5053716;28;20106;-75
2023/08/11 10:21:27;;;;;;;3.38;2.20;;;;;;;-145.00;34.82;72318.53;5052022;28;20513;-77
2023/08/11 10:23:54;;;;;;;2.65;1.85;;;;;;;-145.00;34.39;72254.00;5053093;28;20045;-74
2023/08/11 10:26:22;;;;;;;4.35;2.03;;;;;;;-145.00;33.54;72210.28;5052230;28;20049;-74
2023/08/11 10:28:49;;;;;;;2.97;2.05;;;;;;;-145.00;33.41;72181.16;5053393;28;20501;-75
2023/08/11 10:31:16;;;;;;;2.78;1.70;;;;;;;-145.00;33.13;72239.44;5052053;28;20041;-75
2023/08/11 10:33:49;;;;;;;2.72;2.05;;;;;;;-145.00;33.29;72214.44;5052440;28;20496;-75
2023/08/11 10:36:17;;;;;;;3.92;1.50;;;;;;;-145.00;32.64;72214.44;5052172;28;20396;-75
2023/08/11 10:38:59;;;;;;;3.00;1.80;;;;;;;-145.00;33.45;72162.41;5053398;28;20622;-76
2023/08/11 10:41:26;;;;;;;2.88;1.73;;;;;;;-145.00;33.17;72139.53;5052102;28;20040;-77
2023/08/11 10:43:54;;;;;;;5.93;2.22;;;;;;;-145.00;32.51;72285.22;5052374;28;20041;-77
2023/08/11 10:46:23;;;;;;;3.42;2.10;;;;;;;-145.00;32.82;72328.94;5042997;28;20047;-74
2023/08/11 10:48:52;;;;;;;2.58;2.08;;;;;;;-145.00;33.76;72301.88;5051396;28;20179;-74
2023/08/11 10:51:40;;;;;;;3.05;1.95;;;;;;;-145.00;33.88;72270.66;5050263;28;20041;-75
2023/08/11 10:54:10;;;;;;;5.15;2.30;;;;;;;-145.00;33.18;72218.63;5048939;28;20045;-75
2023/08/11 10:56:38;;;;;;;2.85;1.77;;;;;;;-145.00;34.46;72199.88;5050127;28;20492;-75
2023/08/11 10:59:12;;;;;;;4.57;1.70;;;;;;;-145.00;33.15;72204.03;5050568;28;20048;-74
2023/08/11 11:01:40;;;;;;;2.38;1.73;;;;;;;-145.00;34.64;72326.84;5051155;28;20052;-75
2023/08/11 11:04:09;;;;;;;3.40;1.90;;;;;;;-145.00;33.18;72168.66;5050014;28;20049;-75
2023/08/11 11:06:37;;;;;;;2.47;1.90;;;;;;;-145.00;32.27;72089.56;5050062;28;20041;-76
2023/08/11 11:09:04;;;;;;;3.05;2.03;;;;;;;-145.00;31.36;72070.84;5049701;28;20077;-75
2023/08/11 11:11:31;;;;;;;3.28;1.90;;;;;;;-145.00;32.19;72081.25;5050131;28;20132;-74
2023/08/11 11:13:59;;;;;;;2.40;1.70;;;;;;;-145.00;31.53;72093.72;5050138;28;20049;-76
2023/08/11 11:16:25;;;;;;;2.83;2.00;;;;;;;-145.00;32.49;72158.25;5050013;28;20488;-76
2023/08/11 11:18:52;;;;;;;2.67;1.83;;;;;;;-145.00;33.56;72193.63;5050822;28;20051;-75